Vaaraa aiheuttavia sääilmiöitä ei ole odotettavissa.    Ei varoituksia

Webkamera Lisätietoa Webcam


Yksityisiä sääasemia lähellä:

Sääasema Juupajoki

Sääasema Orivesi

Sääasema Muurame

Sääasema Jyväskylä

Sääasema Vihtavuori


Löydät sääaseman tiedot myös:

Finland Weather Exchange

European Weather Network

Weather Underground

AWEKAS

Windy.com



Säätiedot lähimmiltä METAR asemilta

   
EFHA - Halli (Fin-Afb), Finland
Etäisyys asemalta: Kaakko 25 km
Päivitetty: 28.09.2020 18:20
Selkeää  
Selkeää  
   Tuuli: Itäkaakko 1.5 m/s
Tuuli: Itäkaakko 1.5 m/s
Lämpötila: 15°C
Kastepiste: 9°C
Kosteus: 68%
Ilmanpaine: 1019 hPa
Näkyvyys: Enemmän kuin 10 km
Pilvitiedot: Selkeää
EFHA 281520Z 12003KT CAVOK 15/09 Q1019
EFJY - Jyvaskyla (Mil/Civ), Finland
Etäisyys asemalta: Koillinen 75 km
Päivitetty: 28.09.2020 18:50
Selkeää  
Selkeää  
   Tuuli: Itäkaakko 1.5 m/s
Tuuli: Itäkaakko 1.5 m/s
Lämpötila: 12°C
Kastepiste: 10°C
Kosteus: 88%
Ilmanpaine: 1020 hPa
Näkyvyys: Enemmän kuin 10 km
Pilvitiedot: Selkeää
EFJY 281550Z AUTO 12003KT CAVOK 12/10 Q1020
EFTP - Tampere/Pirkkala, Finland
Etäisyys asemalta: Lounas 81 km
Päivitetty: 28.09.2020 18:50
Selkeää  
Selkeää  
   Tuuli: Itä 1.5 m/s
Tuuli: Itä 1.5 m/s
Lämpötila: 15°C
Kastepiste: 11°C
Kosteus: 77%
Ilmanpaine: 1019 hPa
Näkyvyys: Enemmän kuin 10 km
Pilvitiedot: Selkeää
EFTP 281550Z AUTO 09003KT CAVOK 15/11 Q1019
EFSI - Seinajoki-Ilmajoki, Finland
Etäisyys asemalta: Luode 114 km
Päivitetty: 28.09.2020 18:50
Selkeää  
Selkeää  
   Tuuli: Itäkaakko 2.1 m/s
Tuuli: Itäkaakko 2.1 m/s
Lämpötila: 14°C
Kastepiste: 11°C
Kosteus: 82%
Ilmanpaine: 1019 hPa
Näkyvyys: Enemmän kuin 10 km
Pilvitiedot: Selkeää
EFSI 281550Z AUTO 12004KT CAVOK 14/11 Q1019
EFMI - Mikkeli, Finland
Etäisyys asemalta: Itäkaakko 147 km
Päivitetty: 28.09.2020 18:50
Selkeää  
Selkeää  
   Tuuli: Tyyntä
Tuuli: Tyyntä
Lämpötila: 12°C
Kastepiste: 9°C
Kosteus: 82%
Ilmanpaine: 1021 hPa
Näkyvyys: Enemmän kuin 10 km
Pilvitiedot: Selkeää
EFMI 281550Z AUTO 00000KT CAVOK 12/09 Q1021
EFPO - Pori (Mil/Civ), Finland
Etäisyys asemalta: Länsilounas 154 km
Päivitetty: 28.09.2020 18:50
Selkeää  
Selkeää  
   Tuuli: Vaihtelee 0.5 m/s
Tuuli: Vaihtelee 0.5 m/s
Lämpötila: 15°C
Kastepiste: 12°C
Kosteus: 82%
Ilmanpaine: 1018 hPa
Näkyvyys: Enemmän kuin 10 km
Pilvitiedot: Selkeää
EFPO 281550Z AUTO VRB01KT CAVOK 15/12 Q1018
EFUT - Utti (Fin-Afb), Finland
Etäisyys asemalta: Kaakko 180 km
Päivitetty: 28.09.2020 18:50
Heikkoja sadekuuroja, Sade, Ukkosta  
Heikkoja sadekuuroja, Sade, Ukkosta  
   Tuuli: Itäkaakko 2.1 m/s
Tuuli: Itäkaakko 2.1 m/s
Lämpötila: 13°C
Kastepiste: 11°C
Kosteus: 88%
Ilmanpaine: 1020 hPa
Pilvisyys: Ukkosta
Näkyvyys: Enemmän kuin 10 km
Pilvitiedot: Ukkosta
EFUT 281550Z AUTO 11004KT 9999 -SHRA //////CB 13/11 Q1020
EFVA - Vaasa, Finland
Etäisyys asemalta: Luode 180 km
Päivitetty: 28.09.2020 18:50
Selkeää  
Selkeää  
   Tuuli: Vaihtelee 1 m/s
Tuuli: Vaihtelee 1 m/s
Lämpötila: 14°C
Kastepiste: 13°C
Kosteus: 94%
Ilmanpaine: 1018 hPa
Näkyvyys: Enemmän kuin 10 km
Pilvitiedot: Selkeää
EFVA 281550Z AUTO VRB02KT CAVOK 14/13 Q1018
EFHK - Helsinki/Vantaa, Finland
Etäisyys asemalta: Etelä 191 km
Päivitetty: 28.09.2020 18:50
Selkeää  
Selkeää  
   Tuuli: Itäkoillinen 3.6 m/s
Tuuli: Itäkoillinen 3.6 m/s
Lämpötila: 15°C
Kastepiste: 9°C
Kosteus: 68%
Ilmanpaine: 1019 hPa
Näkyvyys: Enemmän kuin 10 km
Pilvitiedot: Selkeää
EFHK 281550Z 07007KT CAVOK 15/09 Q1019 NOSIG

Alkuperäinen skripti  Saratoga-weather.org Sovitettu myös templatelle  Weerstation Leuven

Laitteet joita käytämme:

Sääasema
Davis VP2

Sääasemaohjelma
Cumulus

Sääaseman palvelin
HP ProBook 6460b

Palveluntarjoaja
Radicenter

Davis VP2

Cumulus

HP ProBook 6460b

Radicenter




Flag Counter Cumulus Top Weather Sites